Terminal Aerodrome Forecast
Issued by NWS

Home | Current Version | Previous Version | Text Only | Print | Product List | Glossary On
Versions: 1 2 3 4 5 6 7 8 9 10 11 12 13 14 15 16
320
FTUS42 KJAX 291357 AAB
TAFVQQ
TAF AMD
KVQQ 291357Z 2914/3012 15009G16KT P6SM SCT015 BKN025
      TEMPO 2914/2915 SCT025
     FM291500 14010G16KT P6SM SCT025 SCT250
     FM291700 13012G21KT P6SM FEW030 SCT250
     FM300100 13010KT P6SM SCT008
     FM300700 14003KT P6SM BKN015=

USA.gov is the U.S. government's official web portal to all federal, state and local government web resources and services.